Latest METARs, TAFs and NOTAMs for MMPR


---------------------------------------------------------------------------
	(OBSERVATIONS)
MMPR 180942Z 04006KT 12SM  BKN250 19/16 A2996 RMK 8/008=
MMPR 180844Z 02004KT 12SM  SCT070 BKN250 20/16 A2996  RMK SLP143
    52002 952 8/038=
MMPR 180743Z 04006KT 12SM  SCT070 BKN250 20/16 A2996 RMK 8/038=
---------------------------------------------------------------------------
	(TERMINAL AREA FORECAST)
MMPR 180455Z 1806/1912 02005KT P6SM BKN250 TX32/1821Z
    TN18/1812Z
    FM181800 20010KT P6SM SCT250
    FM190200 03005KT P6SM SKC=
---------------------------------------------------------------------------
	(NOTAMS)


MMPR A2673/18 CHANGED ALT AWY UJ-14 TO 7000 FT BTN D-15 TIL D-20
    RDL 293 DEG FM VOR/DME/PVR PUBLISHED IN CHART MMPR-IAC-2
    AMDT AIRAC 06/18 DATE 24-MAY-2018 OF MEXICO AIP. 24 MAY 12:00
    2018 UNTIL PERM. CREATED: 21 MAY 16:15 2018

MMPR A2674/18 ALT IS ESTABLISHED AWY UJ-48 TO 70O0 FT BTN D-17
    TIL D-25 RDL 290 DEG FM VOR/DME/PVR IN CHART MMPR-IAC-5 AMDT
    AIRAC 06/2018 DATE 24-MAY-2018 OF MEXICO AIP. 24 MAY 12:00
    2018 UNTIL PERM. CREATED: 21 MAY 16:34 2018

MMPR A6097/18 ON CODING TABLE FOR HOLDINGS ON COLUMN "TURN DIRECTION"
    SAYS IZQUIERDA/LEFT AND MUST SAY DERECHA/RIGHT, PUBLISHED
    IN CHARTS MMPR-IAC-8-1, 9-1 AMDT AIRAC 10/18 DATE 13-SEP-2018
    AIP/MEX. 09 OCT 21:34 2018 UNTIL PERM. CREATED: 09 OCT 21:39
    2018

MMPR A6527/18 CD OPR IN FREQ 121.9 MHZ. 1600/2300 DLY, 01 NOV
    16:00 2018 UNTIL 07 APR 23:00 2019. CREATED: 26 OCT 18:47
    2018

MMPR A7063/18 ON GENERAL AVIATION APRON OVERNIGTH ARE PROHIBITED.
    17 NOV 00:01 2018 UNTIL 19 NOV 20:00 2018. CREATED: 16 NOV
    23:28 2018

---------------------------------------------------------------------------